createdAt,value
2019-03-13T00:00:29.442Z,100003.20
2019-03-13T00:02:55.495Z,99999.72
2019-03-13T00:05:21.778Z,100004.08
2019-03-13T00:07:47.781Z,100002.35
2019-03-13T00:10:14.056Z,99998.89
2019-03-13T00:12:40.001Z,99993.29
2019-03-13T00:15:09.110Z,99999.80
2019-03-13T00:17:35.058Z,99999.06
2019-03-13T00:20:00.961Z,99995.58
2019-03-13T00:22:27.093Z,99988.13
2019-03-13T00:24:56.184Z,99979.89
2019-03-13T00:27:21.836Z,99982.91
2019-03-13T00:29:47.922Z,99980.38
2019-03-13T00:32:13.896Z,99986.95
2019-03-13T00:34:39.850Z,99983.48
2019-03-13T00:37:06.010Z,99980.84
2019-03-13T00:39:31.962Z,99983.08
2019-03-13T00:41:57.892Z,99974.27
2019-03-13T00:44:23.868Z,99977.48
2019-03-13T00:46:49.725Z,99981.05
2019-03-13T00:49:15.580Z,99979.73
2019-03-13T00:51:41.472Z,99976.61
2019-03-13T00:54:07.314Z,99968.67
2019-03-13T00:56:33.159Z,99958.27
2019-03-13T00:58:59.025Z,99960.05
2019-03-13T01:01:26.788Z,99957.41
2019-03-13T01:03:57.618Z,99948.66
2019-03-13T01:06:31.657Z,99948.66
2019-03-13T01:08:57.573Z,99944.34
2019-03-13T01:11:23.543Z,99938.28
2019-03-13T01:13:49.607Z,99933.47
2019-03-13T01:16:15.639Z,99930.52
2019-03-13T01:18:42.825Z,99922.70
2019-03-13T01:21:08.772Z,99906.14
2019-03-13T01:23:34.894Z,99907.09
2019-03-13T01:26:00.714Z,99903.13
2019-03-13T01:28:26.765Z,99899.31
2019-03-13T01:31:09.889Z,99896.66
2019-03-13T01:33:35.949Z,99893.22
2019-03-13T01:36:03.901Z,99891.05
2019-03-13T01:38:30.246Z,99887.14
2019-03-13T01:40:56.115Z,99875.41
2019-03-13T01:43:21.956Z,99861.77
2019-03-13T01:45:48.068Z,99858.81
2019-03-13T01:48:13.946Z,99855.80
2019-03-13T01:50:39.843Z,99848.95
2019-03-13T01:53:05.789Z,99846.81
2019-03-13T01:55:31.903Z,99841.91
2019-03-13T01:57:57.750Z,99832.83
2019-03-13T02:00:23.805Z,99820.56
2019-03-13T02:02:49.752Z,99820.20
2019-03-13T02:05:15.932Z,99817.19
2019-03-13T02:07:41.782Z,99817.95
2019-03-13T02:10:09.835Z,99811.50
2019-03-13T02:12:35.799Z,99814.52
2019-03-13T02:15:02.225Z,99803.23
2019-03-13T02:17:28.191Z,99808.42
2019-03-13T02:19:54.112Z,99810.01
2019-03-13T02:22:19.975Z,99806.64
2019-03-13T02:24:45.893Z,99807.47
2019-03-13T02:27:11.731Z,99804.95
2019-03-13T02:29:37.582Z,99792.66
2019-03-13T02:32:03.658Z,99788.81
2019-03-13T02:34:29.609Z,99781.45
2019-03-13T02:36:55.679Z,99781.45
2019-03-13T02:39:21.634Z,99773.11
2019-03-13T02:41:47.582Z,99773.11
2019-03-13T02:44:13.638Z,99780.30
2019-03-13T02:46:39.515Z,99772.44
2019-03-13T02:49:05.337Z,99772.44
2019-03-13T02:51:31.430Z,99779.52
2019-03-13T02:53:57.304Z,99771.60
2019-03-13T02:56:23.136Z,99769.89
2019-03-13T02:58:48.988Z,99766.72
2019-03-13T03:01:16.952Z,99761.66
2019-03-13T03:03:45.056Z,99765.66
2019-03-13T03:06:11.004Z,99756.96
2019-03-13T03:08:36.871Z,99749.12
2019-03-13T03:11:03.053Z,99755.73
2019-03-13T03:13:28.918Z,99751.81
2019-03-13T03:15:54.869Z,99752.20
2019-03-13T03:18:20.833Z,99743.08
2019-03-13T03:20:46.653Z,99740.02
2019-03-13T03:23:12.647Z,99731.71
2019-03-13T03:25:38.617Z,99728.97
2019-03-13T03:28:04.643Z,99724.59
2019-03-13T03:30:30.801Z,99729.42
2019-03-13T03:32:56.988Z,99726.84
2019-03-13T03:35:23.005Z,99719.33
2019-03-13T03:37:49.025Z,99706.58
2019-03-13T03:40:22.321Z,99706.58
2019-03-13T03:42:46.461Z,99719.25
2019-03-13T03:45:12.608Z,99710.14
2019-03-13T03:47:38.670Z,99710.14
2019-03-13T03:50:10.413Z,99714.06
2019-03-13T03:52:36.398Z,99701.54
2019-03-13T03:55:04.862Z,99701.54
2019-03-13T03:57:30.926Z,99716.88
2019-03-13T03:59:56.926Z,99716.88
2019-03-13T04:02:22.774Z,99712.51
2019-03-13T04:04:48.827Z,99708.58
2019-03-13T04:07:14.747Z,99714.38
2019-03-13T04:09:40.731Z,99714.38
2019-03-13T04:12:06.702Z,99720.51
2019-03-13T04:14:32.657Z,99711.58
2019-03-13T04:16:58.697Z,99705.09
2019-03-13T04:19:24.553Z,99703.77
2019-03-13T04:21:50.513Z,99704.70
2019-03-13T04:24:16.421Z,99697.06
2019-03-13T04:26:44.204Z,99698.84
2019-03-13T04:29:10.167Z,99696.66
2019-03-13T04:31:36.287Z,99699.75
2019-03-13T04:34:02.258Z,99699.75
2019-03-13T04:36:28.085Z,99694.59
2019-03-13T04:38:54.195Z,99692.45
2019-03-13T04:41:22.050Z,99703.87
2019-03-13T04:43:47.990Z,99703.87
2019-03-13T04:46:14.046Z,99704.87
2019-03-13T04:48:39.878Z,99703.13
2019-03-13T04:51:06.128Z,99706.97
2019-03-13T04:53:31.988Z,99713.44
2019-03-13T04:55:57.830Z,99716.58
2019-03-13T04:58:23.786Z,99724.66
2019-03-13T05:00:49.837Z,99716.83
2019-03-13T05:03:15.819Z,99703.23
2019-03-13T05:05:43.581Z,99703.23
2019-03-13T05:08:18.551Z,99708.47
2019-03-13T05:10:44.417Z,99711.55
2019-03-13T05:13:10.577Z,99708.88
2019-03-13T05:15:36.576Z,99707.19
2019-03-13T05:18:02.620Z,99704.16
2019-03-13T05:20:28.723Z,99699.56
2019-03-13T05:22:54.969Z,99683.09
2019-03-13T05:25:20.809Z,99694.63
2019-03-13T05:27:46.767Z,99694.63
2019-03-13T05:30:12.925Z,99693.78
2019-03-13T05:32:38.893Z,99684.16
2019-03-13T05:35:05.526Z,99678.38
2019-03-13T05:37:33.865Z,99685.80
2019-03-13T05:39:59.725Z,99700.27
2019-03-13T05:42:25.683Z,99688.89
2019-03-13T05:44:51.519Z,99691.95
2019-03-13T05:47:17.585Z,99696.72
2019-03-13T05:49:43.450Z,99697.09
2019-03-13T05:52:09.304Z,99704.95
2019-03-13T05:54:35.373Z,99693.96
2019-03-13T05:57:01.419Z,99699.11
2019-03-13T05:59:27.290Z,99692.17
2019-03-13T06:01:53.132Z,99692.17
2019-03-13T06:04:19.067Z,99695.70
2019-03-13T06:06:45.096Z,99697.52
2019-03-13T06:09:10.963Z,99701.95
2019-03-13T06:11:36.896Z,99693.20
2019-03-13T06:14:03.066Z,99690.65
2019-03-13T06:16:29.014Z,99695.36
2019-03-13T06:18:54.977Z,99680.49
2019-03-13T06:21:20.954Z,99677.00
2019-03-13T06:23:48.101Z,99673.52
2019-03-13T06:26:14.174Z,99662.91
2019-03-13T06:28:40.237Z,99668.96
2019-03-13T06:31:06.152Z,99670.59
2019-03-13T06:33:33.130Z,99645.01
2019-03-13T06:35:59.137Z,99668.12
2019-03-13T06:38:25.315Z,99650.52
2019-03-13T06:40:51.465Z,99652.84
2019-03-13T06:43:17.308Z,99652.84
2019-03-13T06:45:43.259Z,99651.44
2019-03-13T06:48:09.127Z,99654.42
2019-03-13T06:50:35.275Z,99645.94
2019-03-13T06:53:01.252Z,99642.74
2019-03-13T06:55:27.194Z,99619.47
2019-03-13T06:57:53.304Z,99622.27
2019-03-13T07:00:37.053Z,99624.28
2019-03-13T07:03:11.189Z,99621.67
2019-03-13T07:05:55.526Z,99610.14
2019-03-13T07:08:40.073Z,99613.77
2019-03-13T07:11:10.606Z,99608.45
2019-03-13T07:13:50.592Z,99604.49
2019-03-13T07:16:27.204Z,99601.19
2019-03-13T07:18:57.792Z,99603.34
2019-03-13T07:21:25.549Z,99600.07
2019-03-13T07:24:11.489Z,99587.55
2019-03-13T07:26:39.436Z,99587.65
2019-03-13T07:29:12.472Z,99577.62
2019-03-13T07:31:42.716Z,99573.80
2019-03-13T07:34:10.525Z,99579.70
2019-03-13T07:36:54.944Z,99573.06
2019-03-13T07:39:39.283Z,99567.45
2019-03-13T07:42:07.171Z,99568.38
2019-03-13T07:44:41.033Z,99562.77
2019-03-13T07:47:14.721Z,99560.25
2019-03-13T07:49:45.464Z,99554.72
2019-03-13T07:52:13.418Z,99560.67
2019-03-13T07:54:47.036Z,99551.20
2019-03-13T07:57:20.809Z,99546.19
2019-03-13T07:59:54.367Z,99541.22
2019-03-13T08:02:22.114Z,99534.22
2019-03-13T08:05:06.391Z,99537.11
2019-03-13T08:07:52.298Z,99525.02
2019-03-13T08:10:26.171Z,99523.87
2019-03-13T08:12:56.635Z,99527.31
2019-03-13T08:15:36.243Z,99521.18
2019-03-13T08:18:04.248Z,99520.24
2019-03-13T08:20:37.951Z,99520.75
2019-03-13T08:23:08.506Z,99506.00
2019-03-13T08:25:36.330Z,99506.68
2019-03-13T08:28:10.371Z,99507.64
2019-03-13T08:30:50.102Z,99511.70
2019-03-13T08:33:20.855Z,99515.14
2019-03-13T08:35:51.444Z,99501.47
2019-03-13T08:38:24.997Z,99499.47
2019-03-13T08:40:52.851Z,99501.45
2019-03-13T08:43:22.550Z,99500.33
2019-03-13T08:45:59.471Z,99487.28
2019-03-13T08:48:36.350Z,99492.56
2019-03-13T08:51:07.062Z,99480.21
2019-03-13T08:53:37.559Z,99485.70
2019-03-13T08:56:05.796Z,99490.34
2019-03-13T08:58:33.543Z,99485.30
2019-03-13T09:01:02.249Z,99488.55
2019-03-13T09:03:30.231Z,99482.66
2019-03-13T09:05:58.204Z,99484.03
2019-03-13T09:08:28.740Z,99489.94
2019-03-13T09:10:59.451Z,99490.56
2019-03-13T09:13:30.127Z,99490.28
2019-03-13T09:16:10.111Z,99485.55
2019-03-13T09:18:43.929Z,99481.89
2019-03-13T09:21:14.714Z,99482.89
2019-03-13T09:23:48.279Z,99478.25
2019-03-13T09:26:16.029Z,99475.61
2019-03-13T09:28:46.488Z,99483.17
2019-03-13T09:31:17.307Z,99486.05
2019-03-13T09:33:47.941Z,99477.73
2019-03-13T09:36:21.715Z,99479.61
2019-03-13T09:38:52.236Z,99483.97
2019-03-13T09:41:23.192Z,99478.50
2019-03-13T09:43:59.740Z,99481.04
2019-03-13T09:46:35.625Z,99479.03
2019-03-13T09:49:18.548Z,99476.65
2019-03-13T09:51:49.428Z,99474.89
2019-03-13T09:54:33.940Z,99472.60
2019-03-13T09:57:18.435Z,99482.07
2019-03-13T10:00:03.067Z,99478.16
2019-03-13T10:02:36.656Z,99480.98
2019-03-13T10:05:17.401Z,99477.95
2019-03-13T10:07:45.201Z,99474.94
2019-03-13T10:10:15.755Z,99477.39
2019-03-13T10:12:49.576Z,99478.01
2019-03-13T10:15:23.070Z,99484.38
2019-03-13T10:17:50.974Z,99484.11
2019-03-13T10:20:36.904Z,99498.16
2019-03-13T10:23:05.223Z,99491.93
2019-03-13T10:25:32.970Z,99485.72
2019-03-13T10:28:03.696Z,99488.91
2019-03-13T10:30:49.715Z,99485.42
2019-03-13T10:33:35.553Z,99481.70
2019-03-13T10:36:12.114Z,99478.27
2019-03-13T10:38:45.882Z,99479.80
2019-03-13T10:41:13.784Z,99480.27
2019-03-13T10:43:47.404Z,99476.88
2019-03-13T10:46:15.423Z,99477.52
2019-03-13T10:48:43.367Z,99475.60
2019-03-13T10:51:27.634Z,99467.71
2019-03-13T10:54:12.454Z,99470.00
2019-03-13T10:56:56.843Z,99484.88
2019-03-13T10:59:41.537Z,99483.22
2019-03-13T11:02:15.084Z,99468.03
2019-03-13T11:04:45.833Z,99476.41
2019-03-13T11:07:13.701Z,99472.89
2019-03-13T11:09:47.230Z,99476.83
2019-03-13T11:12:20.796Z,99481.45
2019-03-13T11:14:54.314Z,99485.91
2019-03-13T11:17:34.204Z,99466.45
2019-03-13T11:20:04.660Z,99472.00
2019-03-13T11:22:38.759Z,99475.94
2019-03-13T11:25:18.380Z,99457.59
2019-03-13T11:27:52.123Z,99454.47
2019-03-13T11:30:20.839Z,99456.48
2019-03-13T11:32:54.873Z,99462.41
2019-03-13T11:35:28.700Z,99464.95
2019-03-13T11:38:11.822Z,99454.33
2019-03-13T11:40:39.771Z,99445.06
2019-03-13T11:43:13.748Z,99429.66
2019-03-13T11:45:53.649Z,99428.76
2019-03-13T11:48:33.444Z,99430.84
2019-03-13T11:51:16.293Z,99411.86
2019-03-13T11:53:47.054Z,99405.52
2019-03-13T11:56:17.771Z,99403.68
2019-03-13T11:59:02.273Z,99405.53
2019-03-13T12:01:44.842Z,99393.48
2019-03-13T12:04:15.315Z,99390.17
2019-03-13T12:06:59.892Z,99388.35
2019-03-13T12:09:27.732Z,99387.42
2019-03-13T12:11:55.624Z,99371.45
2019-03-13T12:14:23.496Z,99371.03
2019-03-13T12:16:54.011Z,99369.59
2019-03-13T12:19:38.769Z,99363.50
2019-03-13T12:22:06.507Z,99363.92
2019-03-13T12:24:40.585Z,99371.75
2019-03-13T12:27:08.328Z,99361.91
2019-03-13T12:29:39.032Z,99360.20
2019-03-13T12:32:18.805Z,99353.48
2019-03-13T12:34:52.699Z,99353.72
2019-03-13T12:37:20.637Z,99362.14
2019-03-13T12:39:48.610Z,99364.19
2019-03-13T12:42:19.296Z,99368.73
2019-03-13T12:44:49.756Z,99363.97
2019-03-13T12:47:29.689Z,99363.97
2019-03-13T12:50:14.277Z,99353.33
2019-03-13T12:53:00.746Z,99357.16
2019-03-13T12:55:44.971Z,99313.50
2019-03-13T12:58:21.659Z,99325.80
2019-03-13T13:00:49.517Z,99356.95
2019-03-13T13:03:23.433Z,99344.78
2019-03-13T13:05:51.375Z,99349.50
2019-03-13T13:08:28.030Z,99349.50
2019-03-13T13:11:10.905Z,99352.55
2019-03-13T13:13:44.487Z,99338.59
2019-03-13T13:16:15.278Z,99328.16
2019-03-13T13:18:53.436Z,99315.42
2019-03-13T13:21:19.762Z,99305.61
2019-03-13T13:23:45.819Z,99311.52
2019-03-13T13:26:11.847Z,99303.64
2019-03-13T13:28:40.878Z,99302.98
2019-03-13T13:31:06.907Z,99301.70
2019-03-13T13:33:33.018Z,99301.94
2019-03-13T13:35:59.490Z,99297.30
2019-03-13T13:38:25.562Z,99294.81
2019-03-13T13:40:51.637Z,99295.29
2019-03-13T13:43:17.527Z,99300.13
2019-03-13T13:45:44.900Z,99285.22
2019-03-13T13:48:10.962Z,99287.52
2019-03-13T13:50:36.986Z,99280.03
2019-03-13T13:53:02.826Z,99289.72
2019-03-13T13:55:28.888Z,99290.34
2019-03-13T13:57:54.944Z,99286.23
2019-03-13T14:00:20.890Z,99284.55
2019-03-13T14:02:46.868Z,99284.92
2019-03-13T14:05:12.832Z,99280.38
2019-03-13T14:07:38.902Z,99285.28
2019-03-13T14:10:10.291Z,99273.25
2019-03-13T14:12:36.134Z,99276.73
2019-03-13T14:15:04.849Z,99271.01
2019-03-13T14:17:32.243Z,99272.42
2019-03-13T14:19:58.094Z,99281.24
2019-03-13T14:22:24.044Z,99275.17
2019-03-13T14:24:49.882Z,99267.63
2019-03-13T14:27:15.814Z,99257.61
2019-03-13T14:29:41.787Z,99266.59
2019-03-13T14:32:07.729Z,99266.25
2019-03-13T14:34:33.919Z,99260.61
2019-03-13T14:37:01.011Z,99249.50
2019-03-13T14:39:27.003Z,99239.63
2019-03-13T14:41:53.058Z,99244.76
2019-03-13T14:44:19.117Z,99251.12
2019-03-13T14:46:45.026Z,99254.83
2019-03-13T14:49:10.989Z,99259.30
2019-03-13T14:51:36.843Z,99264.02
2019-03-13T14:54:02.995Z,99258.29
2019-03-13T14:56:28.928Z,99256.28
2019-03-13T14:58:54.845Z,99257.55
2019-03-13T15:01:20.907Z,99257.64
2019-03-13T15:03:46.986Z,99263.41
2019-03-13T15:06:14.002Z,99263.34
2019-03-13T15:08:40.126Z,99264.02
2019-03-13T15:11:06.196Z,99265.41
2019-03-13T15:13:32.066Z,99266.76
2019-03-13T15:15:58.071Z,99272.14
2019-03-13T15:18:23.993Z,99274.03
2019-03-13T15:20:49.879Z,99275.73
2019-03-13T15:23:16.023Z,99277.44
2019-03-13T15:25:42.168Z,99280.92
2019-03-13T15:28:08.218Z,99279.91
2019-03-13T15:30:34.263Z,99269.95
2019-03-13T15:33:00.182Z,99271.42
2019-03-13T15:35:26.131Z,99270.20
2019-03-13T15:37:52.265Z,99272.97
2019-03-13T15:40:18.376Z,99284.86
2019-03-13T15:42:44.951Z,99277.90
2019-03-13T15:45:26.514Z,99284.44
2019-03-13T15:47:52.570Z,99285.70
2019-03-13T15:50:18.648Z,99292.14
2019-03-13T15:52:44.800Z,99294.86
2019-03-13T15:55:15.446Z,99293.20
2019-03-13T15:57:41.515Z,99291.22
2019-03-13T16:00:19.912Z,99293.53
2019-03-13T16:02:47.433Z,99294.19
2019-03-13T16:05:13.501Z,99301.83
2019-03-13T16:07:39.590Z,99316.98
2019-03-13T16:10:09.171Z,99311.83
2019-03-13T16:12:35.426Z,99309.59
2019-03-13T16:15:01.511Z,99319.80
2019-03-13T16:17:27.462Z,99327.67
2019-03-13T16:19:53.481Z,99330.28
2019-03-13T16:22:21.418Z,99335.67
2019-03-13T16:24:47.384Z,99342.07
2019-03-13T16:27:13.409Z,99344.94
2019-03-13T16:29:39.304Z,99353.17
2019-03-13T16:32:05.324Z,99362.63
2019-03-13T16:34:31.270Z,99372.84
2019-03-13T16:36:57.489Z,99376.94
2019-03-13T16:39:23.333Z,99400.49
2019-03-13T16:41:49.279Z,99411.80
2019-03-13T16:44:15.486Z,99435.28
2019-03-13T16:46:42.941Z,99451.07
2019-03-13T16:49:09.138Z,99473.75
2019-03-13T16:51:35.189Z,99416.10
2019-03-13T16:54:01.144Z,99334.77
2019-03-13T16:56:27.016Z,99354.86
2019-03-13T16:58:53.088Z,99391.84
2019-03-13T17:01:18.931Z,99394.58
2019-03-13T17:03:45.053Z,99397.31
2019-03-13T17:06:11.145Z,99397.52
2019-03-13T17:08:37.149Z,99398.27
2019-03-13T17:11:03.176Z,99395.74
2019-03-13T17:13:29.164Z,99387.72
2019-03-13T17:15:55.031Z,99398.61
2019-03-13T17:18:20.990Z,99406.33
2019-03-13T17:20:47.060Z,99411.27
2019-03-13T17:23:13.020Z,99409.20
2019-03-13T17:25:39.074Z,99422.56
2019-03-13T17:28:05.195Z,99427.94
2019-03-13T17:30:32.404Z,99440.74
2019-03-13T17:32:58.882Z,99439.73
2019-03-13T17:35:25.017Z,99442.53
2019-03-13T17:37:51.483Z,99442.18
2019-03-13T17:40:22.300Z,99446.27
2019-03-13T17:42:48.246Z,99449.81
2019-03-13T17:45:16.499Z,99451.69
2019-03-13T17:47:42.623Z,99449.35
2019-03-13T17:50:11.610Z,99460.41
2019-03-13T17:52:37.499Z,99461.44
2019-03-13T17:55:05.894Z,99463.52
2019-03-13T17:57:31.920Z,99464.12
2019-03-13T17:59:57.906Z,99460.24
2019-03-13T18:02:24.117Z,99460.66
2019-03-13T18:04:49.947Z,99458.83
2019-03-13T18:07:15.881Z,99471.14
2019-03-13T18:09:41.737Z,99476.20
2019-03-13T18:12:07.600Z,99479.05
2019-03-13T18:14:33.511Z,99478.33
2019-03-13T18:16:59.472Z,99488.67
2019-03-13T18:19:25.300Z,99479.55
2019-03-13T18:21:51.225Z,99489.14
2019-03-13T18:24:17.200Z,99491.00
2019-03-13T18:26:43.037Z,99490.70
2019-03-13T18:29:09.428Z,99490.22
2019-03-13T18:31:35.527Z,99488.91
2019-03-13T18:34:01.377Z,99517.22
2019-03-13T18:36:27.400Z,99495.85
2019-03-13T18:38:53.330Z,99486.47
2019-03-13T18:41:23.147Z,99493.10
2019-03-13T18:43:48.156Z,99499.66
2019-03-13T18:46:14.070Z,99527.94
2019-03-13T18:48:39.985Z,99510.80
2019-03-13T18:51:06.056Z,99518.53
2019-03-13T18:53:32.015Z,99522.56
2019-03-13T18:55:58.087Z,99517.05
2019-03-13T18:58:23.959Z,99512.83
2019-03-13T19:00:49.884Z,99508.20
2019-03-13T19:03:15.820Z,99517.38
2019-03-13T19:05:41.858Z,99517.12
2019-03-13T19:08:07.845Z,99527.17
2019-03-13T19:10:34.074Z,99528.17
2019-03-13T19:13:00.181Z,99522.89
2019-03-13T19:15:27.923Z,99527.86
2019-03-13T19:17:54.064Z,99532.30
2019-03-13T19:20:26.629Z,99523.95
2019-03-13T19:22:52.706Z,99518.62
2019-03-13T19:25:18.932Z,99517.91
2019-03-13T19:27:44.850Z,99520.79
2019-03-13T19:30:31.059Z,99520.78
2019-03-13T19:32:57.097Z,99522.86
2019-03-13T19:35:23.217Z,99524.41
2019-03-13T19:37:49.085Z,99540.50
2019-03-13T19:40:17.864Z,99543.33
2019-03-13T19:42:43.964Z,99542.95
2019-03-13T19:45:13.618Z,99550.31
2019-03-13T19:47:40.447Z,99542.53
2019-03-13T19:50:07.230Z,99551.45
2019-03-13T19:52:33.955Z,99552.70
2019-03-13T19:54:59.857Z,99555.80
2019-03-13T19:57:25.695Z,99556.16
2019-03-13T19:59:51.533Z,99560.63
2019-03-13T20:02:17.515Z,99568.92
2019-03-13T20:04:47.460Z,99573.51
2019-03-13T20:07:11.199Z,99570.66
2019-03-13T20:09:37.176Z,99569.53
2019-03-13T20:12:03.317Z,99571.67
2019-03-13T20:14:29.278Z,99571.94
2019-03-13T20:16:55.216Z,99573.48
2019-03-13T20:19:21.047Z,99572.31
2019-03-13T20:21:47.047Z,99574.23
2019-03-13T20:24:13.025Z,99577.45
2019-03-13T20:26:38.847Z,99571.77
2019-03-13T20:29:04.937Z,99582.51
2019-03-13T20:31:30.889Z,99589.42
2019-03-13T20:33:57.071Z,99598.39
2019-03-13T20:36:22.973Z,99593.23
2019-03-13T20:38:48.917Z,99589.77
2019-03-13T20:41:15.041Z,99602.59
2019-03-13T20:43:41.236Z,99603.03
2019-03-13T20:46:07.304Z,99605.66
2019-03-13T20:48:33.324Z,99609.46
2019-03-13T20:50:59.171Z,99613.63
2019-03-13T20:53:25.227Z,99617.01
2019-03-13T20:55:51.427Z,99624.27
2019-03-13T20:58:17.682Z,99614.09
2019-03-13T21:00:44.265Z,99610.60
2019-03-13T21:03:10.656Z,99610.52
2019-03-13T21:05:36.848Z,99615.91
2019-03-13T21:08:03.230Z,99610.66
2019-03-13T21:10:29.309Z,99610.66
2019-03-13T21:12:55.408Z,99628.39
2019-03-13T21:15:27.465Z,99634.92
2019-03-13T21:17:53.472Z,99635.42
2019-03-13T21:20:19.803Z,99645.34
2019-03-13T21:22:45.676Z,99647.00
2019-03-13T21:25:16.098Z,99640.34
2019-03-13T21:27:42.368Z,99640.38
2019-03-13T21:30:21.995Z,99639.16
2019-03-13T21:32:47.834Z,99643.64
2019-03-13T21:35:13.868Z,99641.06
2019-03-13T21:37:39.897Z,99650.14
2019-03-13T21:40:09.141Z,99650.14
2019-03-13T21:42:34.990Z,99650.95
2019-03-13T21:45:00.875Z,99652.20
2019-03-13T21:47:26.743Z,99661.84
2019-03-13T21:49:52.626Z,99660.67
2019-03-13T21:52:18.446Z,99656.08
2019-03-13T21:54:45.335Z,99652.13
2019-03-13T21:57:11.410Z,99647.77
2019-03-13T21:59:37.257Z,99644.25
2019-03-13T22:02:03.209Z,99652.62
2019-03-13T22:04:29.050Z,99656.91
2019-03-13T22:06:55.003Z,99660.02
2019-03-13T22:09:21.276Z,99650.47
2019-03-13T22:11:47.313Z,99659.31
2019-03-13T22:14:13.150Z,99666.31
2019-03-13T22:16:39.019Z,99670.18
2019-03-13T22:19:04.952Z,99671.22
2019-03-13T22:21:30.807Z,99678.98
2019-03-13T22:23:56.744Z,99676.94
2019-03-13T22:26:22.664Z,99670.03
2019-03-13T22:28:48.461Z,99671.77
2019-03-13T22:31:14.391Z,99663.05
2019-03-13T22:33:40.368Z,99664.83
2019-03-13T22:36:06.436Z,99660.50
2019-03-13T22:38:32.335Z,99660.86
2019-03-13T22:40:58.199Z,99674.72
2019-03-13T22:43:24.124Z,99665.05
2019-03-13T22:45:49.948Z,99671.13
2019-03-13T22:48:15.918Z,99665.31
2019-03-13T22:50:41.878Z,99654.92
2019-03-13T22:53:07.777Z,99660.75
2019-03-13T22:55:33.644Z,99654.56
2019-03-13T22:58:01.520Z,99659.73
2019-03-13T23:00:50.691Z,99656.25
2019-03-13T23:03:17.337Z,99655.74
2019-03-13T23:05:43.281Z,99645.85
2019-03-13T23:08:09.322Z,99650.14
2019-03-13T23:10:35.399Z,99655.61
2019-03-13T23:13:01.450Z,99658.36
2019-03-13T23:15:27.504Z,99659.78
2019-03-13T23:17:53.484Z,99662.82
2019-03-13T23:20:19.458Z,99666.15
2019-03-13T23:22:45.292Z,99656.19
2019-03-13T23:25:11.361Z,99658.84
2019-03-13T23:27:37.656Z,99654.05
2019-03-13T23:30:06.390Z,99644.79
2019-03-13T23:32:32.254Z,99646.58
2019-03-13T23:34:58.202Z,99661.31
2019-03-13T23:37:24.101Z,99672.31
2019-03-13T23:39:49.942Z,99681.74
2019-03-13T23:42:15.771Z,99678.92
2019-03-13T23:44:41.621Z,99674.22
2019-03-13T23:47:07.547Z,99672.34
2019-03-13T23:49:33.351Z,99670.78
2019-03-13T23:51:59.289Z,99682.21
2019-03-13T23:54:25.139Z,99683.18
2019-03-13T23:56:50.953Z,99684.83
2019-03-13T23:59:16.968Z,99686.75
